createdAt,value
2023-04-18T19:25:28.170Z,11.91
2023-04-18T19:26:21.246Z,11.86
2023-04-18T19:27:18.265Z,11.86
2023-04-18T19:31:46.676Z,11.83
2023-04-18T19:32:24.142Z,11.80
2023-04-18T19:33:24.131Z,11.79
2023-04-18T19:34:24.115Z,11.75
2023-04-18T19:35:26.019Z,11.78
2023-04-18T19:36:24.071Z,11.78
2023-04-18T19:37:24.050Z,11.76
2023-04-18T19:38:24.024Z,11.78
2023-04-18T19:46:17.106Z,11.75
2023-04-18T19:47:16.958Z,11.75
2023-04-18T19:48:17.551Z,11.76
2023-04-18T19:49:17.142Z,11.76
2023-04-18T19:50:19.662Z,11.76
2023-04-18T19:51:22.416Z,11.76
2023-04-18T19:52:18.038Z,11.78
2023-04-18T19:53:16.940Z,11.75
2023-04-18T19:54:16.918Z,11.76
2023-04-18T19:55:16.899Z,11.73
2023-04-18T19:58:35.668Z,11.72
2023-04-18T19:59:35.660Z,11.70
2023-04-18T20:00:35.657Z,11.70
2023-04-18T20:01:35.748Z,11.75
2023-04-18T20:02:35.714Z,11.73
2023-04-18T20:03:36.697Z,11.72
2023-04-18T20:04:35.832Z,11.75
2023-04-18T20:05:35.766Z,11.72
2023-04-18T20:06:35.584Z,11.73
2023-04-18T20:07:35.575Z,11.70
2023-04-18T20:08:35.600Z,11.69
2023-04-18T20:09:36.098Z,11.69
2023-04-18T20:10:35.603Z,11.65
2023-04-18T20:11:35.553Z,11.65
2023-04-18T20:12:35.522Z,11.67
2023-04-18T20:13:35.523Z,11.64
2023-04-18T20:14:35.517Z,11.61
2023-04-18T20:15:36.098Z,11.61
2023-04-18T20:16:35.596Z,11.61
2023-04-18T20:17:36.312Z,11.60
2023-04-18T20:18:35.466Z,11.61
2023-04-18T20:19:35.459Z,11.64
2023-04-18T20:20:35.459Z,11.64
2023-04-18T20:21:35.554Z,11.64
2023-04-18T20:22:37.594Z,11.62
2023-04-18T20:23:35.426Z,11.60
2023-04-18T20:24:35.403Z,11.61
2023-04-18T20:25:35.408Z,11.60
2023-04-18T20:26:35.384Z,11.60
2023-04-18T20:27:35.370Z,11.57
2023-04-18T20:28:36.106Z,11.58
2023-04-18T20:29:35.444Z,11.57
2023-04-18T20:30:37.753Z,11.54
2023-04-18T20:31:35.323Z,11.52
2023-04-18T20:32:35.346Z,11.54
2023-04-18T20:33:35.326Z,11.51
2023-04-18T20:34:36.110Z,11.49
2023-04-18T20:35:37.600Z,11.49
2023-04-18T20:36:35.440Z,11.47
2023-04-18T20:37:35.266Z,11.46
2023-04-18T20:38:35.256Z,11.44
2023-04-18T20:39:35.249Z,11.46
2023-04-18T20:40:35.262Z,11.46
2023-04-18T20:41:35.270Z,11.44
2023-04-18T20:42:35.251Z,11.46
2023-04-18T20:43:35.287Z,11.46
2023-04-18T20:44:35.207Z,11.46
2023-04-18T20:45:35.198Z,11.44
2023-04-18T20:46:35.288Z,11.42
2023-04-18T20:47:35.252Z,11.42
2023-04-18T20:48:37.113Z,11.42
2023-04-18T20:49:36.650Z,11.40
2023-04-18T20:50:35.170Z,11.40
2023-04-18T20:51:35.125Z,11.42
2023-04-18T20:52:35.113Z,11.42
2023-04-18T20:53:35.115Z,11.39
2023-04-18T20:54:35.134Z,11.42
2023-04-18T20:55:36.245Z,11.40
2023-04-18T20:56:37.684Z,11.40
2023-04-18T20:57:35.055Z,11.42
2023-04-18T20:58:35.055Z,11.42
2023-04-18T20:59:35.086Z,11.40
2023-04-18T21:00:35.127Z,11.40
2023-04-18T21:01:37.373Z,11.39
2023-04-18T21:02:35.855Z,11.37
2023-04-18T21:03:35.258Z,11.39
2023-04-18T21:04:35.052Z,11.36
2023-04-18T21:05:35.003Z,11.35
2023-04-18T21:06:34.976Z,11.32
2023-04-18T21:07:35.005Z,11.32
2023-04-18T21:08:36.719Z,11.28
2023-04-18T21:09:35.645Z,11.28
2023-04-18T21:10:34.937Z,11.29
2023-04-18T21:11:34.915Z,11.29
2023-04-18T21:12:34.904Z,11.29
2023-04-18T21:13:34.966Z,11.29
2023-04-18T21:14:36.700Z,11.32
2023-04-18T21:15:36.147Z,11.32
2023-04-18T21:16:35.014Z,11.32
2023-04-18T21:17:34.888Z,11.33
2023-04-18T21:18:34.833Z,11.33
2023-04-18T21:19:34.836Z,11.33
2023-04-18T21:20:34.879Z,11.33
2023-04-18T21:21:36.316Z,11.32
2023-04-18T21:22:36.699Z,11.32
2023-04-18T21:23:34.778Z,11.29
2023-04-18T21:24:34.783Z,11.29
2023-04-18T21:25:34.785Z,11.28
2023-04-18T21:26:34.799Z,11.32
2023-04-18T21:27:36.629Z,11.25
2023-04-18T21:28:35.619Z,11.25
2023-04-18T21:29:34.772Z,11.28
2023-04-18T21:30:34.721Z,11.27
2023-04-18T21:31:34.770Z,11.27
2023-04-18T21:32:34.691Z,11.27
2023-04-18T21:33:35.620Z,11.24
2023-04-18T21:34:36.703Z,11.25
2023-04-18T21:35:36.142Z,11.22
2023-04-18T21:36:34.641Z,11.24
2023-04-18T21:37:34.643Z,11.24
2023-04-18T21:38:34.627Z,11.24
2023-04-18T21:39:34.678Z,11.21
2023-04-18T21:40:36.284Z,11.18
2023-04-18T21:41:35.127Z,11.18
2023-04-18T21:42:34.638Z,11.18
2023-04-18T21:43:34.576Z,11.18
2023-04-18T21:44:34.563Z,11.18
2023-04-18T21:45:34.624Z,11.19
2023-04-18T21:46:35.134Z,11.18
2023-04-18T21:47:34.638Z,11.19
2023-04-18T21:48:35.630Z,11.19
2023-04-18T21:49:34.502Z,11.19
2023-04-18T21:50:34.528Z,11.19
2023-04-18T21:51:34.495Z,11.19
2023-04-18T21:52:34.484Z,11.19
2023-04-18T21:53:36.150Z,11.15
2023-04-18T21:54:35.132Z,11.15
2023-04-18T21:55:35.128Z,11.14
2023-04-18T21:56:34.432Z,11.10
2023-04-18T21:57:34.429Z,11.15
2023-04-18T21:58:34.422Z,11.15
2023-04-18T21:59:35.140Z,11.15
2023-04-18T22:00:35.122Z,11.15
2023-04-18T22:01:34.576Z,11.17
2023-04-18T22:02:34.510Z,11.17
2023-04-18T22:03:34.581Z,11.17
2023-04-18T22:04:34.399Z,11.14
2023-04-18T22:05:34.369Z,11.10
2023-04-18T22:06:36.149Z,11.10
2023-04-18T22:07:40.825Z,11.10
2023-04-18T22:08:35.364Z,11.09
2023-04-18T22:09:34.328Z,11.09
2023-04-18T22:10:34.306Z,11.07
2023-04-18T22:11:34.286Z,11.09
2023-04-18T22:12:35.125Z,11.07
2023-04-18T22:13:34.362Z,11.04
2023-04-18T22:14:34.360Z,11.06
2023-04-18T22:15:34.238Z,11.03
2023-04-18T22:16:34.289Z,11.03
2023-04-18T22:17:34.277Z,11.00
2023-04-18T22:18:34.204Z,10.97
2023-04-18T22:19:35.640Z,10.94
2023-04-18T22:20:35.213Z,10.88
2023-04-18T22:21:34.236Z,10.84
2023-04-18T22:22:34.185Z,10.84
2023-04-18T22:23:34.155Z,10.85
2023-04-18T22:24:34.137Z,10.84
2023-04-18T22:25:35.178Z,10.82
2023-04-18T22:26:34.213Z,10.82
2023-04-18T22:27:34.172Z,10.84
2023-04-18T22:28:34.102Z,10.79
2023-04-18T22:29:34.093Z,10.79
2023-04-18T22:30:34.147Z,10.81
2023-04-18T22:31:34.081Z,10.79
2023-04-18T22:32:35.716Z,10.79
2023-04-18T22:33:34.667Z,10.79
2023-04-18T22:34:34.109Z,10.81
2023-04-18T22:35:34.045Z,10.79
2023-04-18T22:36:34.013Z,10.74
2023-04-18T22:37:34.009Z,10.74
2023-04-18T22:38:34.675Z,10.74
2023-04-18T22:39:34.034Z,10.73
2023-04-18T22:40:34.040Z,10.74
2023-04-18T22:41:34.000Z,10.73
2023-04-18T22:42:35.637Z,10.73
2023-04-18T22:43:33.945Z,10.71
2023-04-18T22:44:33.926Z,10.68
2023-04-18T22:45:35.188Z,10.67
2023-04-18T22:46:35.407Z,10.67
2023-04-18T22:47:33.978Z,10.67
2023-04-18T22:48:33.888Z,10.64
2023-04-18T22:49:33.866Z,10.66
2023-04-18T22:50:33.858Z,10.64
2023-04-18T22:51:33.883Z,10.59
2023-04-18T22:52:33.864Z,10.60
2023-04-18T22:53:33.913Z,10.56
2023-04-18T22:54:33.826Z,10.59
2023-04-18T22:55:33.816Z,10.59
2023-04-18T22:56:33.826Z,10.56
2023-04-18T22:57:33.875Z,10.56
2023-04-18T22:58:33.870Z,10.60
2023-04-18T22:59:33.989Z,10.60
2023-04-18T23:00:33.928Z,10.63
2023-04-18T23:01:33.794Z,10.61
2023-04-18T23:02:33.825Z,10.61
2023-04-18T23:03:33.845Z,10.60
2023-04-18T23:04:34.745Z,10.59
2023-04-18T23:05:33.751Z,10.60
2023-04-18T23:06:33.820Z,10.59
2023-04-18T23:07:35.315Z,10.56
2023-04-18T23:08:33.670Z,10.59
2023-04-18T23:09:33.670Z,10.56
2023-04-18T23:10:33.663Z,10.55
2023-04-18T23:11:33.745Z,10.59
2023-04-18T23:12:33.663Z,10.59
2023-04-18T23:13:33.662Z,10.55
2023-04-18T23:14:33.624Z,10.52
2023-04-18T23:15:33.613Z,10.51
2023-04-18T23:16:33.615Z,10.47
2023-04-18T23:17:34.216Z,10.48
2023-04-18T23:18:33.594Z,10.44
2023-04-18T23:19:33.598Z,10.42
2023-04-18T23:20:33.550Z,10.41
2023-04-18T23:21:33.557Z,10.42
2023-04-18T23:22:33.561Z,10.42
2023-04-18T23:23:33.525Z,10.40
2023-04-18T23:24:33.598Z,10.38
2023-04-18T23:25:34.782Z,10.38
2023-04-18T23:26:35.174Z,10.36
2023-04-18T23:27:33.487Z,10.36
2023-04-18T23:28:33.499Z,10.38
2023-04-18T23:29:33.482Z,10.38
2023-04-18T23:30:34.160Z,10.36
2023-04-18T23:31:33.539Z,10.36
2023-04-18T23:32:34.267Z,10.36
2023-04-18T23:33:33.495Z,10.34
2023-04-18T23:34:33.401Z,10.34
2023-04-18T23:35:33.389Z,10.36
2023-04-18T23:36:33.441Z,10.34
2023-04-18T23:37:33.417Z,10.33
2023-04-18T23:38:36.158Z,10.34
2023-04-18T23:39:35.249Z,10.36
2023-04-18T23:40:33.348Z,10.36
2023-04-18T23:41:33.343Z,10.38
2023-04-18T23:42:33.323Z,10.36
2023-04-18T23:43:33.391Z,10.36
2023-04-18T23:44:33.329Z,10.36
2023-04-18T23:45:33.320Z,10.38
2023-04-18T23:46:36.337Z,10.36
2023-04-18T23:47:33.314Z,10.36
2023-04-18T23:48:33.259Z,10.40
2023-04-18T23:49:33.261Z,10.40
2023-04-18T23:50:33.225Z,10.40
2023-04-18T23:51:34.685Z,10.41
2023-04-18T23:52:35.194Z,10.41
2023-04-18T23:53:33.234Z,10.40
2023-04-18T23:54:33.204Z,10.40
2023-04-18T23:55:33.180Z,10.41
2023-04-18T23:56:33.250Z,10.42
2023-04-18T23:57:33.252Z,10.41
2023-04-18T23:58:33.239Z,10.44
2023-04-18T23:59:33.819Z,10.42
